sensor_id;sensor_type;location;lat;lon;timestamp;temperature;humidity
34740;DHT22;20967;48.442;9.994;2023-04-15T00:01:38;3.30;99.90
34740;DHT22;20967;48.442;9.994;2023-04-15T00:04:06;3.40;99.90
34740;DHT22;20967;48.442;9.994;2023-04-15T00:06:36;3.50;99.90
34740;DHT22;20967;48.442;9.994;2023-04-15T00:09:05;3.50;99.90
34740;DHT22;20967;48.442;9.994;2023-04-15T00:11:33;3.40;99.90
34740;DHT22;20967;48.442;9.994;2023-04-15T00:14:01;3.30;99.90
34740;DHT22;20967;48.442;9.994;2023-04-15T00:16:29;3.30;99.90
34740;DHT22;20967;48.442;9.994;2023-04-15T00:18:57;3.20;99.90
34740;DHT22;20967;48.442;9.994;2023-04-15T00:21:26;3.20;99.90
34740;DHT22;20967;48.442;9.994;2023-04-15T00:23:55;3.10;99.90
34740;DHT22;20967;48.442;9.994;2023-04-15T00:26:23;3.00;99.90
34740;DHT22;20967;48.442;9.994;2023-04-15T00:28:50;3.00;99.90
34740;DHT22;20967;48.442;9.994;2023-04-15T00:31:18;2.90;99.90
34740;DHT22;20967;48.442;9.994;2023-04-15T00:33:46;2.80;99.90
34740;DHT22;20967;48.442;9.994;2023-04-15T00:36:16;2.80;99.90
34740;DHT22;20967;48.442;9.994;2023-04-15T00:38:44;2.80;99.90
34740;DHT22;20967;48.442;9.994;2023-04-15T00:41:12;2.80;99.90
34740;DHT22;20967;48.442;9.994;2023-04-15T00:43:40;2.80;99.90
34740;DHT22;20967;48.442;9.994;2023-04-15T00:46:08;2.70;99.90
34740;DHT22;20967;48.442;9.994;2023-04-15T00:48:37;2.80;99.90
34740;DHT22;20967;48.442;9.994;2023-04-15T00:51:05;2.80;99.90
34740;DHT22;20967;48.442;9.994;2023-04-15T00:53:33;2.80;99.90
34740;DHT22;20967;48.442;9.994;2023-04-15T00:56:01;2.80;99.90
34740;DHT22;20967;48.442;9.994;2023-04-15T00:58:28;2.80;99.90
34740;DHT22;20967;48.442;9.994;2023-04-15T01:00:56;2.70;99.90
34740;DHT22;20967;48.442;9.994;2023-04-15T01:03:25;2.60;99.90
34740;DHT22;20967;48.442;9.994;2023-04-15T01:05:53;2.50;99.90
34740;DHT22;20967;48.442;9.994;2023-04-15T01:08:26;2.50;99.90
34740;DHT22;20967;48.442;9.994;2023-04-15T01:10:53;2.50;99.90
34740;DHT22;20967;48.442;9.994;2023-04-15T01:13:23;2.50;99.90
34740;DHT22;20967;48.442;9.994;2023-04-15T01:15:52;2.50;99.90
34740;DHT22;20967;48.442;9.994;2023-04-15T01:18:22;2.50;99.90
34740;DHT22;20967;48.442;9.994;2023-04-15T01:20:50;2.50;99.90
34740;DHT22;20967;48.442;9.994;2023-04-15T01:23:18;2.50;99.90
34740;DHT22;20967;48.442;9.994;2023-04-15T01:25:46;2.50;99.90
34740;DHT22;20967;48.442;9.994;2023-04-15T01:28:19;2.50;99.90
34740;DHT22;20967;48.442;9.994;2023-04-15T01:30:47;2.50;99.90
34740;DHT22;20967;48.442;9.994;2023-04-15T01:33:14;2.50;99.90
34740;DHT22;20967;48.442;9.994;2023-04-15T01:35:42;2.50;99.90
34740;DHT22;20967;48.442;9.994;2023-04-15T01:38:11;2.50;99.90
34740;DHT22;20967;48.442;9.994;2023-04-15T01:40:39;2.50;99.90
34740;DHT22;20967;48.442;9.994;2023-04-15T01:43:07;2.50;99.90
34740;DHT22;20967;48.442;9.994;2023-04-15T01:45:35;2.50;99.90
34740;DHT22;20967;48.442;9.994;2023-04-15T01:48:02;2.50;99.90
34740;DHT22;20967;48.442;9.994;2023-04-15T01:50:30;2.40;99.90
34740;DHT22;20967;48.442;9.994;2023-04-15T01:52:58;2.30;99.90
34740;DHT22;20967;48.442;9.994;2023-04-15T01:55:26;2.20;99.90
34740;DHT22;20967;48.442;9.994;2023-04-15T01:57:54;2.20;99.90
34740;DHT22;20967;48.442;9.994;2023-04-15T02:00:22;2.20;99.90
34740;DHT22;20967;48.442;9.994;2023-04-15T02:02:54;2.20;99.90
34740;DHT22;20967;48.442;9.994;2023-04-15T02:05:26;2.30;99.90
34740;DHT22;20967;48.442;9.994;2023-04-15T02:07:53;2.30;99.90
34740;DHT22;20967;48.442;9.994;2023-04-15T02:10:21;2.50;99.90
34740;DHT22;20967;48.442;9.994;2023-04-15T02:12:49;2.50;99.90
34740;DHT22;20967;48.442;9.994;2023-04-15T02:15:16;2.60;99.90
34740;DHT22;20967;48.442;9.994;2023-04-15T02:17:44;2.60;99.90
34740;DHT22;20967;48.442;9.994;2023-04-15T02:20:14;2.60;99.90
34740;DHT22;20967;48.442;9.994;2023-04-15T02:22:44;2.60;99.90
34740;DHT22;20967;48.442;9.994;2023-04-15T02:25:14;2.60;99.90
34740;DHT22;20967;48.442;9.994;2023-04-15T02:27:43;2.60;99.90
34740;DHT22;20967;48.442;9.994;2023-04-15T02:30:11;2.60;99.90
34740;DHT22;20967;48.442;9.994;2023-04-15T02:32:41;2.50;99.90
34740;DHT22;20967;48.442;9.994;2023-04-15T02:35:10;2.50;99.90
34740;DHT22;20967;48.442;9.994;2023-04-15T02:37:38;2.40;99.90
34740;DHT22;20967;48.442;9.994;2023-04-15T02:40:10;2.40;99.90
34740;DHT22;20967;48.442;9.994;2023-04-15T02:42:39;2.30;99.90
34740;DHT22;20967;48.442;9.994;2023-04-15T02:45:08;2.20;99.90
34740;DHT22;20967;48.442;9.994;2023-04-15T02:47:38;2.10;99.90
34740;DHT22;20967;48.442;9.994;2023-04-15T02:50:11;1.90;99.90
34740;DHT22;20967;48.442;9.994;2023-04-15T02:52:41;1.80;99.90
34740;DHT22;20967;48.442;9.994;2023-04-15T02:55:12;1.80;99.90
34740;DHT22;20967;48.442;9.994;2023-04-15T02:57:40;1.70;99.90
34740;DHT22;20967;48.442;9.994;2023-04-15T03:00:08;1.70;99.90
34740;DHT22;20967;48.442;9.994;2023-04-15T03:02:38;1.70;99.90
34740;DHT22;20967;48.442;9.994;2023-04-15T03:05:12;1.70;99.90
34740;DHT22;20967;48.442;9.994;2023-04-15T03:07:40;1.60;99.90
34740;DHT22;20967;48.442;9.994;2023-04-15T03:10:08;1.50;99.90
34740;DHT22;20967;48.442;9.994;2023-04-15T03:12:36;1.50;99.90
34740;DHT22;20967;48.442;9.994;2023-04-15T03:15:07;1.70;99.90
34740;DHT22;20967;48.442;9.994;2023-04-15T03:17:37;1.70;99.90
34740;DHT22;20967;48.442;9.994;2023-04-15T03:20:05;1.70;99.90
34740;DHT22;20967;48.442;9.994;2023-04-15T03:22:33;1.80;99.90
34740;DHT22;20967;48.442;9.994;2023-04-15T03:25:01;1.80;99.90
34740;DHT22;20967;48.442;9.994;2023-04-15T03:27:28;1.80;99.90
34740;DHT22;20967;48.442;9.994;2023-04-15T03:29:56;1.90;99.90
34740;DHT22;20967;48.442;9.994;2023-04-15T03:32:24;1.90;99.90
34740;DHT22;20967;48.442;9.994;2023-04-15T03:34:53;1.90;99.90
34740;DHT22;20967;48.442;9.994;2023-04-15T03:37:21;1.90;99.90
34740;DHT22;20967;48.442;9.994;2023-04-15T03:39:49;1.90;99.90
34740;DHT22;20967;48.442;9.994;2023-04-15T03:42:17;1.90;99.90
34740;DHT22;20967;48.442;9.994;2023-04-15T03:44:45;1.90;99.90
34740;DHT22;20967;48.442;9.994;2023-04-15T03:47:12;1.90;99.90
34740;DHT22;20967;48.442;9.994;2023-04-15T03:49:40;1.80;99.90
34740;DHT22;20967;48.442;9.994;2023-04-15T03:52:08;1.70;99.90
34740;DHT22;20967;48.442;9.994;2023-04-15T03:54:36;1.70;99.90
34740;DHT22;20967;48.442;9.994;2023-04-15T03:57:03;1.70;99.90
34740;DHT22;20967;48.442;9.994;2023-04-15T03:59:31;1.60;99.90
34740;DHT22;20967;48.442;9.994;2023-04-15T04:01:59;1.50;99.90
34740;DHT22;20967;48.442;9.994;2023-04-15T04:04:29;1.50;99.90
34740;DHT22;20967;48.442;9.994;2023-04-15T04:06:58;1.50;99.90
34740;DHT22;20967;48.442;9.994;2023-04-15T04:09:26;1.40;99.90
34740;DHT22;20967;48.442;9.994;2023-04-15T04:11:54;1.40;99.90
34740;DHT22;20967;48.442;9.994;2023-04-15T04:14:23;1.30;99.90
34740;DHT22;20967;48.442;9.994;2023-04-15T04:16:53;1.30;99.90
34740;DHT22;20967;48.442;9.994;2023-04-15T04:19:23;1.30;99.90
34740;DHT22;20967;48.442;9.994;2023-04-15T04:21:52;1.40;99.90
34740;DHT22;20967;48.442;9.994;2023-04-15T04:24:19;1.40;99.90
34740;DHT22;20967;48.442;9.994;2023-04-15T04:26:47;1.40;99.90
34740;DHT22;20967;48.442;9.994;2023-04-15T04:29:15;1.30;99.90
34740;DHT22;20967;48.442;9.994;2023-04-15T04:31:43;1.30;99.90
34740;DHT22;20967;48.442;9.994;2023-04-15T04:34:10;1.30;99.90
34740;DHT22;20967;48.442;9.994;2023-04-15T04:36:38;1.20;99.90
34740;DHT22;20967;48.442;9.994;2023-04-15T04:39:06;1.20;99.90
34740;DHT22;20967;48.442;9.994;2023-04-15T04:41:34;1.20;99.90
34740;DHT22;20967;48.442;9.994;2023-04-15T04:44:02;1.20;99.90
34740;DHT22;20967;48.442;9.994;2023-04-15T04:46:30;1.20;99.90
34740;DHT22;20967;48.442;9.994;2023-04-15T04:48:58;1.30;99.90
34740;DHT22;20967;48.442;9.994;2023-04-15T04:51:25;1.40;99.90
34740;DHT22;20967;48.442;9.994;2023-04-15T04:53:53;1.40;99.90
34740;DHT22;20967;48.442;9.994;2023-04-15T04:56:22;1.50;99.90
34740;DHT22;20967;48.442;9.994;2023-04-15T04:58:50;1.60;99.90
34740;DHT22;20967;48.442;9.994;2023-04-15T05:01:17;1.60;99.90
34740;DHT22;20967;48.442;9.994;2023-04-15T05:03:45;1.60;99.90
34740;DHT22;20967;48.442;9.994;2023-04-15T05:06:13;1.70;99.90
34740;DHT22;20967;48.442;9.994;2023-04-15T05:08:43;1.70;99.90
34740;DHT22;20967;48.442;9.994;2023-04-15T05:11:12;1.70;99.90
34740;DHT22;20967;48.442;9.994;2023-04-15T05:13:40;1.80;99.90
34740;DHT22;20967;48.442;9.994;2023-04-15T05:16:07;1.80;99.90
34740;DHT22;20967;48.442;9.994;2023-04-15T05:18:35;1.90;99.90
34740;DHT22;20967;48.442;9.994;2023-04-15T05:21:03;1.90;99.90
34740;DHT22;20967;48.442;9.994;2023-04-15T05:23:31;2.00;99.90
34740;DHT22;20967;48.442;9.994;2023-04-15T05:25:59;2.10;99.90
34740;DHT22;20967;48.442;9.994;2023-04-15T05:28:27;2.20;99.90
34740;DHT22;20967;48.442;9.994;2023-04-15T05:30:57;2.20;99.90
34740;DHT22;20967;48.442;9.994;2023-04-15T05:33:26;2.40;99.90
34740;DHT22;20967;48.442;9.994;2023-04-15T05:35:54;2.50;99.90
34740;DHT22;20967;48.442;9.994;2023-04-15T05:38:22;2.60;99.90
34740;DHT22;20967;48.442;9.994;2023-04-15T05:40:50;2.70;99.90
34740;DHT22;20967;48.442;9.994;2023-04-15T05:43:17;2.80;99.90
34740;DHT22;20967;48.442;9.994;2023-04-15T05:45:47;2.90;99.90
34740;DHT22;20967;48.442;9.994;2023-04-15T05:48:15;3.10;99.90
34740;DHT22;20967;48.442;9.994;2023-04-15T05:50:43;3.10;99.90
34740;DHT22;20967;48.442;9.994;2023-04-15T05:53:10;3.20;99.90
34740;DHT22;20967;48.442;9.994;2023-04-15T05:55:43;3.30;99.90
34740;DHT22;20967;48.442;9.994;2023-04-15T05:58:11;3.30;99.90
34740;DHT22;20967;48.442;9.994;2023-04-15T06:00:41;3.30;99.90
34740;DHT22;20967;48.442;9.994;2023-04-15T06:03:08;3.20;99.90
34740;DHT22;20967;48.442;9.994;2023-04-15T06:05:37;3.30;99.90
34740;DHT22;20967;48.442;9.994;2023-04-15T06:08:05;3.30;99.90
34740;DHT22;20967;48.442;9.994;2023-04-15T06:10:38;3.40;99.90
34740;DHT22;20967;48.442;9.994;2023-04-15T06:13:14;3.40;99.90
34740;DHT22;20967;48.442;9.994;2023-04-15T06:15:45;3.60;99.90
34740;DHT22;20967;48.442;9.994;2023-04-15T06:18:15;3.70;99.90
34740;DHT22;20967;48.442;9.994;2023-04-15T06:20:47;3.90;99.90
34740;DHT22;20967;48.442;9.994;2023-04-15T06:23:17;4.00;99.90
34740;DHT22;20967;48.442;9.994;2023-04-15T06:25:52;4.30;99.90
34740;DHT22;20967;48.442;9.994;2023-04-15T06:28:23;4.50;99.90
34740;DHT22;20967;48.442;9.994;2023-04-15T06:30:53;4.70;99.90
34740;DHT22;20967;48.442;9.994;2023-04-15T06:33:24;4.90;99.90
34740;DHT22;20967;48.442;9.994;2023-04-15T06:35:54;5.10;99.90
34740;DHT22;20967;48.442;9.994;2023-04-15T06:38:22;5.30;99.90
34740;DHT22;20967;48.442;9.994;2023-04-15T06:40:49;5.60;99.90
34740;DHT22;20967;48.442;9.994;2023-04-15T06:43:17;5.80;99.90
34740;DHT22;20967;48.442;9.994;2023-04-15T06:45:50;6.00;99.90
34740;DHT22;20967;48.442;9.994;2023-04-15T06:48:18;6.20;99.90
34740;DHT22;20967;48.442;9.994;2023-04-15T06:50:46;6.30;99.90
34740;DHT22;20967;48.442;9.994;2023-04-15T06:53:14;6.60;99.90
34740;DHT22;20967;48.442;9.994;2023-04-15T06:55:41;6.90;99.90
34740;DHT22;20967;48.442;9.994;2023-04-15T06:58:09;7.00;99.90
34740;DHT22;20967;48.442;9.994;2023-04-15T07:00:39;7.20;99.90
34740;DHT22;20967;48.442;9.994;2023-04-15T07:03:08;7.50;99.90
34740;DHT22;20967;48.442;9.994;2023-04-15T07:05:42;7.60;99.90
34740;DHT22;20967;48.442;9.994;2023-04-15T07:08:10;7.80;99.90
34740;DHT22;20967;48.442;9.994;2023-04-15T07:10:38;7.90;99.90
34740;DHT22;20967;48.442;9.994;2023-04-15T07:13:06;8.10;99.90
34740;DHT22;20967;48.442;9.994;2023-04-15T07:15:34;8.50;99.90
34740;DHT22;20967;48.442;9.994;2023-04-15T07:18:02;8.70;99.90
34740;DHT22;20967;48.442;9.994;2023-04-15T07:20:30;8.60;99.90
34740;DHT22;20967;48.442;9.994;2023-04-15T07:22:57;8.80;99.90
34740;DHT22;20967;48.442;9.994;2023-04-15T07:25:25;9.00;99.90
34740;DHT22;20967;48.442;9.994;2023-04-15T07:27:53;8.90;99.90
34740;DHT22;20967;48.442;9.994;2023-04-15T07:30:21;8.90;99.90
34740;DHT22;20967;48.442;9.994;2023-04-15T07:32:49;9.00;99.90
34740;DHT22;20967;48.442;9.994;2023-04-15T07:35:16;8.90;99.90
34740;DHT22;20967;48.442;9.994;2023-04-15T07:37:46;9.00;99.90
34740;DHT22;20967;48.442;9.994;2023-04-15T07:40:14;9.20;99.90
34740;DHT22;20967;48.442;9.994;2023-04-15T07:42:42;9.20;99.90
34740;DHT22;20967;48.442;9.994;2023-04-15T07:45:13;9.40;99.90
34740;DHT22;20967;48.442;9.994;2023-04-15T07:47:40;9.50;99.90
34740;DHT22;20967;48.442;9.994;2023-04-15T07:50:09;9.60;99.90
34740;DHT22;20967;48.442;9.994;2023-04-15T07:52:41;9.80;99.90
34740;DHT22;20967;48.442;9.994;2023-04-15T07:55:11;9.90;99.90
34740;DHT22;20967;48.442;9.994;2023-04-15T07:57:38;9.90;99.90
34740;DHT22;20967;48.442;9.994;2023-04-15T08:00:07;10.10;99.90
34740;DHT22;20967;48.442;9.994;2023-04-15T08:02:35;10.30;99.90
34740;DHT22;20967;48.442;9.994;2023-04-15T08:05:03;10.30;99.90
34740;DHT22;20967;48.442;9.994;2023-04-15T08:07:31;10.40;99.90
34740;DHT22;20967;48.442;9.994;2023-04-15T08:09:59;10.10;99.90
34740;DHT22;20967;48.442;9.994;2023-04-15T08:12:27;10.00;99.90
34740;DHT22;20967;48.442;9.994;2023-04-15T08:14:57;10.10;99.90
34740;DHT22;20967;48.442;9.994;2023-04-15T08:17:27;10.30;99.90
34740;DHT22;20967;48.442;9.994;2023-04-15T08:19:55;10.70;99.90
34740;DHT22;20967;48.442;9.994;2023-04-15T08:22:23;10.60;99.90
34740;DHT22;20967;48.442;9.994;2023-04-15T08:24:51;10.80;99.90
34740;DHT22;20967;48.442;9.994;2023-04-15T08:27:19;10.60;99.90
34740;DHT22;20967;48.442;9.994;2023-04-15T08:29:47;10.90;99.90
34740;DHT22;20967;48.442;9.994;2023-04-15T08:32:15;10.80;99.90
34740;DHT22;20967;48.442;9.994;2023-04-15T08:34:42;10.50;99.90
34740;DHT22;20967;48.442;9.994;2023-04-15T08:37:10;10.50;99.90
34740;DHT22;20967;48.442;9.994;2023-04-15T08:39:38;10.60;99.90
34740;DHT22;20967;48.442;9.994;2023-04-15T08:42:10;10.70;99.90
34740;DHT22;20967;48.442;9.994;2023-04-15T08:44:37;10.40;99.90
34740;DHT22;20967;48.442;9.994;2023-04-15T08:47:07;10.20;99.90
34740;DHT22;20967;48.442;9.994;2023-04-15T08:49:38;10.10;99.90
34740;DHT22;20967;48.442;9.994;2023-04-15T08:52:10;10.30;99.90
34740;DHT22;20967;48.442;9.994;2023-04-15T08:54:39;10.50;99.90
34740;DHT22;20967;48.442;9.994;2023-04-15T08:57:13;11.00;99.90
34740;DHT22;20967;48.442;9.994;2023-04-15T08:59:43;11.10;99.90
34740;DHT22;20967;48.442;9.994;2023-04-15T09:02:11;11.00;99.90
34740;DHT22;20967;48.442;9.994;2023-04-15T09:04:39;10.80;99.90
34740;DHT22;20967;48.442;9.994;2023-04-15T09:07:07;10.60;99.90
34740;DHT22;20967;48.442;9.994;2023-04-15T09:09:40;11.00;99.90
34740;DHT22;20967;48.442;9.994;2023-04-15T09:12:10;10.80;99.90
34740;DHT22;20967;48.442;9.994;2023-04-15T09:14:39;10.90;99.90
34740;DHT22;20967;48.442;9.994;2023-04-15T09:17:09;11.00;99.90
34740;DHT22;20967;48.442;9.994;2023-04-15T09:19:37;11.30;99.90
34740;DHT22;20967;48.442;9.994;2023-04-15T09:22:05;11.30;99.90
34740;DHT22;20967;48.442;9.994;2023-04-15T09:24:38;11.30;99.90
34740;DHT22;20967;48.442;9.994;2023-04-15T09:27:07;11.40;99.90
34740;DHT22;20967;48.442;9.994;2023-04-15T09:29:34;11.10;99.90
34740;DHT22;20967;48.442;9.994;2023-04-15T09:32:10;11.50;99.90
34740;DHT22;20967;48.442;9.994;2023-04-15T09:34:37;11.50;99.90
34740;DHT22;20967;48.442;9.994;2023-04-15T09:37:05;11.70;99.90
34740;DHT22;20967;48.442;9.994;2023-04-15T09:39:48;11.90;99.90
34740;DHT22;20967;48.442;9.994;2023-04-15T09:42:16;11.80;99.90
34740;DHT22;20967;48.442;9.994;2023-04-15T09:44:45;11.90;99.90
34740;DHT22;20967;48.442;9.994;2023-04-15T09:47:31;11.80;99.90
34740;DHT22;20967;48.442;9.994;2023-04-15T09:50:00;12.10;99.90
34740;DHT22;20967;48.442;9.994;2023-04-15T09:52:28;11.80;99.90
34740;DHT22;20967;48.442;9.994;2023-04-15T09:54:59;11.50;99.90
34740;DHT22;20967;48.442;9.994;2023-04-15T09:57:34;11.70;99.90
34740;DHT22;20967;48.442;9.994;2023-04-15T10:00:03;11.70;99.90
34740;DHT22;20967;48.442;9.994;2023-04-15T10:02:31;12.00;99.90
34740;DHT22;20967;48.442;9.994;2023-04-15T10:05:00;11.80;99.90
34740;DHT22;20967;48.442;9.994;2023-04-15T10:07:28;12.10;99.90
34740;DHT22;20967;48.442;9.994;2023-04-15T10:09:58;11.80;99.90
34740;DHT22;20967;48.442;9.994;2023-04-15T10:12:28;11.50;99.90
34740;DHT22;20967;48.442;9.994;2023-04-15T10:14:58;11.60;99.90
34740;DHT22;20967;48.442;9.994;2023-04-15T10:17:28;11.60;99.90
34740;DHT22;20967;48.442;9.994;2023-04-15T10:20:00;11.90;99.90
34740;DHT22;20967;48.442;9.994;2023-04-15T10:22:30;11.80;99.90
34740;DHT22;20967;48.442;9.994;2023-04-15T10:25:00;11.60;99.90
34740;DHT22;20967;48.442;9.994;2023-04-15T10:27:29;11.90;99.90
34740;DHT22;20967;48.442;9.994;2023-04-15T10:29:59;11.90;99.90
34740;DHT22;20967;48.442;9.994;2023-04-15T10:32:29;12.20;99.90
34740;DHT22;20967;48.442;9.994;2023-04-15T10:34:58;12.30;99.90
34740;DHT22;20967;48.442;9.994;2023-04-15T10:37:37;12.40;99.90
34740;DHT22;20967;48.442;9.994;2023-04-15T10:42:55;12.00;99.90
34740;DHT22;20967;48.442;9.994;2023-04-15T10:45:36;12.00;99.90
34740;DHT22;20967;48.442;9.994;2023-04-15T10:48:03;11.90;99.90
34740;DHT22;20967;48.442;9.994;2023-04-15T10:50:31;12.00;99.90
34740;DHT22;20967;48.442;9.994;2023-04-15T10:53:02;11.80;99.90
34740;DHT22;20967;48.442;9.994;2023-04-15T10:55:34;12.10;99.90
34740;DHT22;20967;48.442;9.994;2023-04-15T10:58:02;12.60;99.90
34740;DHT22;20967;48.442;9.994;2023-04-15T11:00:31;12.90;99.90
34740;DHT22;20967;48.442;9.994;2023-04-15T11:03:09;12.60;99.90
34740;DHT22;20967;48.442;9.994;2023-04-15T11:08:10;12.30;99.90
34740;DHT22;20967;48.442;9.994;2023-04-15T11:13:15;12.30;99.90
34740;DHT22;20967;48.442;9.994;2023-04-15T11:15:44;12.10;99.90
34740;DHT22;20967;48.442;9.994;2023-04-15T11:18:21;12.60;99.90
34740;DHT22;20967;48.442;9.994;2023-04-15T11:20:49;12.90;99.90
34740;DHT22;20967;48.442;9.994;2023-04-15T11:23:26;12.20;99.90
34740;DHT22;20967;48.442;9.994;2023-04-15T11:25:48;12.60;99.90
34740;DHT22;20967;48.442;9.994;2023-04-15T11:28:16;12.10;99.90
34740;DHT22;20967;48.442;9.994;2023-04-15T11:30:43;12.20;99.90
34740;DHT22;20967;48.442;9.994;2023-04-15T11:33:11;12.20;99.90
34740;DHT22;20967;48.442;9.994;2023-04-15T11:35:41;12.00;99.90
34740;DHT22;20967;48.442;9.994;2023-04-15T11:38:11;12.20;99.90
34740;DHT22;20967;48.442;9.994;2023-04-15T11:40:40;12.10;99.90
34740;DHT22;20967;48.442;9.994;2023-04-15T11:43:09;12.00;99.90
34740;DHT22;20967;48.442;9.994;2023-04-15T11:45:58;11.70;99.90
34740;DHT22;20967;48.442;9.994;2023-04-15T11:48:34;11.70;99.90
34740;DHT22;20967;48.442;9.994;2023-04-15T11:51:05;11.60;99.90
34740;DHT22;20967;48.442;9.994;2023-04-15T11:53:44;11.30;99.90
34740;DHT22;20967;48.442;9.994;2023-04-15T11:56:19;11.20;99.90
34740;DHT22;20967;48.442;9.994;2023-04-15T11:58:50;11.10;99.90
34740;DHT22;20967;48.442;9.994;2023-04-15T12:01:17;11.00;99.90
34740;DHT22;20967;48.442;9.994;2023-04-15T12:03:46;10.80;99.90
34740;DHT22;20967;48.442;9.994;2023-04-15T12:06:24;10.60;99.90
34740;DHT22;20967;48.442;9.994;2023-04-15T12:08:55;10.70;99.90
34740;DHT22;20967;48.442;9.994;2023-04-15T12:11:36;10.30;99.90
34740;DHT22;20967;48.442;9.994;2023-04-15T12:16:45;10.00;99.90
34740;DHT22;20967;48.442;9.994;2023-04-15T12:19:16;9.80;99.90
34740;DHT22;20967;48.442;9.994;2023-04-15T12:21:46;9.90;99.90
34740;DHT22;20967;48.442;9.994;2023-04-15T12:24:14;10.00;99.90
34740;DHT22;20967;48.442;9.994;2023-04-15T12:26:46;9.80;99.90
34740;DHT22;20967;48.442;9.994;2023-04-15T12:29:15;10.10;99.90
34740;DHT22;20967;48.442;9.994;2023-04-15T12:31:50;9.40;99.90
34740;DHT22;20967;48.442;9.994;2023-04-15T12:34:24;9.60;99.90
34740;DHT22;20967;48.442;9.994;2023-04-15T12:36:47;9.90;99.90
34740;DHT22;20967;48.442;9.994;2023-04-15T12:39:15;10.00;99.90
34740;DHT22;20967;48.442;9.994;2023-04-15T12:41:42;10.20;99.90
34740;DHT22;20967;48.442;9.994;2023-04-15T12:44:10;10.50;99.90
34740;DHT22;20967;48.442;9.994;2023-04-15T12:46:38;10.40;99.90
34740;DHT22;20967;48.442;9.994;2023-04-15T12:49:07;10.10;99.90
34740;DHT22;20967;48.442;9.994;2023-04-15T12:51:35;10.20;99.90
34740;DHT22;20967;48.442;9.994;2023-04-15T12:54:02;10.20;99.90
34740;DHT22;20967;48.442;9.994;2023-04-15T12:56:31;10.40;99.90
34740;DHT22;20967;48.442;9.994;2023-04-15T12:59:02;10.50;99.90
34740;DHT22;20967;48.442;9.994;2023-04-15T13:01:30;10.40;99.90
34740;DHT22;20967;48.442;9.994;2023-04-15T13:03:57;10.40;99.90
34740;DHT22;20967;48.442;9.994;2023-04-15T13:06:26;11.10;99.90
34740;DHT22;20967;48.442;9.994;2023-04-15T13:08:54;11.20;99.90
34740;DHT22;20967;48.442;9.994;2023-04-15T13:11:22;11.50;99.90
34740;DHT22;20967;48.442;9.994;2023-04-15T13:13:50;11.60;99.90
34740;DHT22;20967;48.442;9.994;2023-04-15T13:16:18;11.40;99.90
34740;DHT22;20967;48.442;9.994;2023-04-15T13:18:48;11.60;99.90
34740;DHT22;20967;48.442;9.994;2023-04-15T13:21:17;11.60;99.90
34740;DHT22;20967;48.442;9.994;2023-04-15T13:23:48;11.80;99.90
34740;DHT22;20967;48.442;9.994;2023-04-15T13:26:19;11.60;99.90
34740;DHT22;20967;48.442;9.994;2023-04-15T13:28:46;10.80;99.90
34740;DHT22;20967;48.442;9.994;2023-04-15T13:31:14;10.70;99.90
34740;DHT22;20967;48.442;9.994;2023-04-15T13:33:42;10.40;99.90
34740;DHT22;20967;48.442;9.994;2023-04-15T13:36:10;10.40;99.90
34740;DHT22;20967;48.442;9.994;2023-04-15T13:38:37;10.50;99.90
34740;DHT22;20967;48.442;9.994;2023-04-15T13:41:05;10.20;99.90
34740;DHT22;20967;48.442;9.994;2023-04-15T13:43:33;10.00;99.90
34740;DHT22;20967;48.442;9.994;2023-04-15T13:46:01;9.60;99.90
34740;DHT22;20967;48.442;9.994;2023-04-15T13:48:29;9.50;99.90
34740;DHT22;20967;48.442;9.994;2023-04-15T13:50:57;9.20;99.90
34740;DHT22;20967;48.442;9.994;2023-04-15T13:53:25;9.00;99.90
34740;DHT22;20967;48.442;9.994;2023-04-15T13:55:53;8.90;99.90
34740;DHT22;20967;48.442;9.994;2023-04-15T13:58:20;8.70;99.90
34740;DHT22;20967;48.442;9.994;2023-04-15T14:00:48;8.30;99.90
34740;DHT22;20967;48.442;9.994;2023-04-15T14:03:16;8.10;99.90
34740;DHT22;20967;48.442;9.994;2023-04-15T14:05:44;8.20;99.90
34740;DHT22;20967;48.442;9.994;2023-04-15T14:08:12;8.00;99.90
34740;DHT22;20967;48.442;9.994;2023-04-15T14:10:40;8.00;99.90
34740;DHT22;20967;48.442;9.994;2023-04-15T14:13:09;7.80;99.90
34740;DHT22;20967;48.442;9.994;2023-04-15T14:15:37;7.60;99.90
34740;DHT22;20967;48.442;9.994;2023-04-15T14:18:04;7.30;99.90
34740;DHT22;20967;48.442;9.994;2023-04-15T14:20:32;7.40;99.90
34740;DHT22;20967;48.442;9.994;2023-04-15T14:23:00;7.30;99.90
34740;DHT22;20967;48.442;9.994;2023-04-15T14:25:28;7.30;99.90
34740;DHT22;20967;48.442;9.994;2023-04-15T14:27:56;7.20;99.90
34740;DHT22;20967;48.442;9.994;2023-04-15T14:30:23;7.20;99.90
34740;DHT22;20967;48.442;9.994;2023-04-15T14:32:51;7.20;99.90
34740;DHT22;20967;48.442;9.994;2023-04-15T14:35:19;7.00;99.90
34740;DHT22;20967;48.442;9.994;2023-04-15T14:37:47;6.90;99.90
34740;DHT22;20967;48.442;9.994;2023-04-15T14:40:14;6.70;99.90
34740;DHT22;20967;48.442;9.994;2023-04-15T14:42:42;6.60;99.90
34740;DHT22;20967;48.442;9.994;2023-04-15T14:45:15;6.50;99.90
34740;DHT22;20967;48.442;9.994;2023-04-15T14:47:43;6.60;99.90
34740;DHT22;20967;48.442;9.994;2023-04-15T14:50:11;6.70;99.90
34740;DHT22;20967;48.442;9.994;2023-04-15T14:52:39;6.70;99.90
34740;DHT22;20967;48.442;9.994;2023-04-15T14:55:08;6.80;99.90
34740;DHT22;20967;48.442;9.994;2023-04-15T14:57:37;6.90;99.90
34740;DHT22;20967;48.442;9.994;2023-04-15T15:00:06;6.90;99.90
34740;DHT22;20967;48.442;9.994;2023-04-15T15:02:34;6.90;99.90
34740;DHT22;20967;48.442;9.994;2023-04-15T15:05:02;7.00;99.90
34740;DHT22;20967;48.442;9.994;2023-04-15T15:07:30;7.10;99.90
34740;DHT22;20967;48.442;9.994;2023-04-15T15:09:58;7.10;99.90
34740;DHT22;20967;48.442;9.994;2023-04-15T15:12:25;7.10;99.90
34740;DHT22;20967;48.442;9.994;2023-04-15T15:14:54;7.30;99.90
34740;DHT22;20967;48.442;9.994;2023-04-15T15:17:22;7.30;99.90
34740;DHT22;20967;48.442;9.994;2023-04-15T15:19:55;7.30;99.90
34740;DHT22;20967;48.442;9.994;2023-04-15T15:22:26;7.40;99.90
34740;DHT22;20967;48.442;9.994;2023-04-15T15:24:53;7.30;99.90
34740;DHT22;20967;48.442;9.994;2023-04-15T15:27:23;7.40;99.90
34740;DHT22;20967;48.442;9.994;2023-04-15T15:29:55;7.40;99.90
34740;DHT22;20967;48.442;9.994;2023-04-15T15:32:24;7.50;99.90
34740;DHT22;20967;48.442;9.994;2023-04-15T15:34:55;7.50;99.90
34740;DHT22;20967;48.442;9.994;2023-04-15T15:37:29;7.40;99.90
34740;DHT22;20967;48.442;9.994;2023-04-15T15:39:59;7.50;99.90
34740;DHT22;20967;48.442;9.994;2023-04-15T15:42:34;7.50;99.90
34740;DHT22;20967;48.442;9.994;2023-04-15T15:45:01;7.50;99.90
34740;DHT22;20967;48.442;9.994;2023-04-15T15:47:29;7.60;99.90
34740;DHT22;20967;48.442;9.994;2023-04-15T15:50:01;7.60;99.90
34740;DHT22;20967;48.442;9.994;2023-04-15T15:52:30;7.60;99.90
34740;DHT22;20967;48.442;9.994;2023-04-15T15:54:58;7.60;99.90
34740;DHT22;20967;48.442;9.994;2023-04-15T15:57:28;7.60;99.90
34740;DHT22;20967;48.442;9.994;2023-04-15T15:59:56;7.70;99.90
34740;DHT22;20967;48.442;9.994;2023-04-15T16:02:27;7.70;99.90